createdAt,value
2022-11-19T00:01:10.941Z,-0.22
2022-11-19T00:03:38.697Z,-0.13
2022-11-19T00:06:08.313Z,-0.17
2022-11-19T00:08:34.874Z,-0.91
2022-11-19T00:11:09.658Z,-0.02
2022-11-19T00:13:37.969Z,-0.99
2022-11-19T00:16:14.671Z,0.01
2022-11-19T00:18:41.640Z,0.26
2022-11-19T00:21:13.451Z,-0.03
2022-11-19T00:23:40.771Z,-0.84
2022-11-19T00:26:12.820Z,-0.81
2022-11-19T00:28:40.014Z,-1.23
2022-11-19T00:31:09.512Z,-1.09
2022-11-19T00:33:37.634Z,-0.94
2022-11-19T00:36:06.581Z,-0.16
2022-11-19T00:38:33.014Z,0.00
2022-11-19T00:40:59.662Z,0.08
2022-11-19T00:43:44.668Z,-1.15
2022-11-19T00:46:11.911Z,-1.02
2022-11-19T00:48:39.212Z,-0.83
2022-11-19T00:51:07.578Z,-1.17
2022-11-19T00:53:34.716Z,-0.88
2022-11-19T00:56:05.634Z,-1.16
2022-11-19T00:58:32.421Z,-1.47
2022-11-19T01:00:59.059Z,-1.69
2022-11-19T01:03:25.797Z,-1.42
2022-11-19T01:05:52.602Z,-1.22
2022-11-19T01:08:19.157Z,-2.01
2022-11-19T01:10:45.895Z,-1.46
2022-11-19T01:13:30.823Z,-1.18
2022-11-19T01:15:57.403Z,-1.36
2022-11-19T01:18:24.140Z,-1.66
2022-11-19T01:20:50.638Z,-1.31
2022-11-19T01:23:17.108Z,-1.69
2022-11-19T01:25:43.579Z,-1.99
2022-11-19T01:28:10.055Z,-1.73
2022-11-19T01:30:41.097Z,-1.78
2022-11-19T01:33:08.007Z,-1.68
2022-11-19T01:35:34.791Z,-2.13
2022-11-19T01:38:02.563Z,-2.02
2022-11-19T01:40:29.179Z,-1.93
2022-11-19T01:42:55.729Z,-1.41
2022-11-19T01:45:31.559Z,-1.89
2022-11-19T01:48:23.101Z,-1.74
2022-11-19T01:51:08.501Z,-2.06
2022-11-19T01:53:36.544Z,-2.03
2022-11-19T01:56:05.454Z,-2.16
2022-11-19T01:58:36.856Z,-1.90
2022-11-19T02:01:03.965Z,-1.81
2022-11-19T02:03:31.793Z,-2.12
2022-11-19T02:06:01.332Z,-1.50
2022-11-19T02:08:50.472Z,-1.60
2022-11-19T02:11:25.861Z,-1.95
2022-11-19T02:14:13.597Z,-1.78
2022-11-19T02:16:56.133Z,-1.95
2022-11-19T02:19:37.273Z,-1.65
2022-11-19T02:22:23.839Z,-2.27
2022-11-19T02:24:55.736Z,-1.79
2022-11-19T02:27:40.890Z,-1.61
2022-11-19T02:30:09.861Z,-1.93
2022-11-19T02:32:49.230Z,-1.97
2022-11-19T02:35:41.754Z,-1.90
2022-11-19T02:38:38.895Z,-2.25
2022-11-19T02:41:36.754Z,-1.90
2022-11-19T02:44:34.514Z,-2.11
2022-11-19T02:47:05.196Z,-1.82
2022-11-19T02:49:33.840Z,-1.96
2022-11-19T02:52:00.993Z,-2.04
2022-11-19T02:54:27.899Z,-2.11
2022-11-19T02:56:58.850Z,-2.22
2022-11-19T03:00:12.038Z,-2.02
2022-11-19T03:03:26.832Z,-1.75
2022-11-19T03:06:00.377Z,-2.01
2022-11-19T03:08:27.524Z,-2.06
2022-11-19T03:11:24.022Z,-2.40
2022-11-19T03:14:45.313Z,-2.24
2022-11-19T03:17:32.166Z,-2.42
2022-11-19T03:20:19.829Z,-2.76
2022-11-19T03:22:58.099Z,-2.67
2022-11-19T03:25:34.809Z,-1.82
2022-11-19T03:28:07.507Z,-1.84
2022-11-19T03:30:34.431Z,-2.32
2022-11-19T03:33:06.884Z,-2.35
2022-11-19T03:35:41.880Z,-2.53
2022-11-19T03:38:13.332Z,-2.48
2022-11-19T03:40:42.064Z,-2.36
2022-11-19T03:43:13.228Z,-2.42
2022-11-19T03:45:44.354Z,-2.83
2022-11-19T03:48:14.255Z,-2.58
2022-11-19T03:50:57.633Z,-2.59
2022-11-19T03:53:24.849Z,-2.30
2022-11-19T03:55:59.715Z,-2.45
2022-11-19T03:58:27.351Z,-2.70
2022-11-19T04:00:54.066Z,-2.49
2022-11-19T04:03:20.571Z,-2.52
2022-11-19T04:05:47.331Z,-2.67
2022-11-19T04:08:13.893Z,-2.69
2022-11-19T04:10:40.313Z,-2.61
2022-11-19T04:13:06.780Z,-2.85
2022-11-19T04:15:33.298Z,-2.31
2022-11-19T04:17:59.710Z,-2.63
2022-11-19T04:20:26.148Z,-2.59
2022-11-19T04:22:52.600Z,-2.69
2022-11-19T04:25:19.140Z,-2.55
2022-11-19T04:27:46.780Z,-1.98
2022-11-19T04:30:14.476Z,-1.33
2022-11-19T04:32:41.775Z,-1.68
2022-11-19T04:35:08.745Z,-1.89
2022-11-19T04:37:35.373Z,-1.80
2022-11-19T04:40:02.020Z,-2.08
2022-11-19T04:42:28.465Z,-1.96
2022-11-19T04:44:54.909Z,-2.02
2022-11-19T04:47:21.359Z,-2.18
2022-11-19T04:49:47.775Z,-2.43
2022-11-19T04:52:14.208Z,-1.86
2022-11-19T04:54:40.655Z,-2.30
2022-11-19T04:57:07.115Z,-2.43
2022-11-19T04:59:33.580Z,-2.40
2022-11-19T05:02:00.099Z,-2.06
2022-11-19T05:04:26.574Z,-1.97
2022-11-19T05:06:53.022Z,-1.58
2022-11-19T05:09:19.581Z,-1.10
2022-11-19T05:11:46.195Z,-1.21
2022-11-19T05:14:12.636Z,-1.13
2022-11-19T05:16:39.071Z,-0.96
2022-11-19T05:19:05.607Z,-0.94
2022-11-19T05:21:32.022Z,-0.90
2022-11-19T05:23:58.444Z,-0.85
2022-11-19T05:26:24.874Z,-0.93
2022-11-19T05:28:51.299Z,-0.91
2022-11-19T05:31:17.747Z,-0.94
2022-11-19T05:33:44.230Z,-1.05
2022-11-19T05:36:10.667Z,-1.64
2022-11-19T05:38:37.450Z,-1.66
2022-11-19T05:41:04.086Z,-2.16
2022-11-19T05:43:30.629Z,-3.00
2022-11-19T05:46:00.588Z,-3.04
2022-11-19T05:48:27.034Z,-2.71
2022-11-19T05:50:53.417Z,-2.63
2022-11-19T05:53:19.863Z,-2.50
2022-11-19T05:55:46.770Z,-2.70
2022-11-19T05:58:13.797Z,-2.97
2022-11-19T06:00:40.463Z,-2.45
2022-11-19T06:03:07.063Z,-2.65
2022-11-19T06:05:38.735Z,-2.71
2022-11-19T06:08:06.779Z,-2.88
2022-11-19T06:10:33.251Z,-2.61
2022-11-19T06:12:59.650Z,-2.94
2022-11-19T06:15:26.134Z,-2.98
2022-11-19T06:17:52.541Z,-2.87
2022-11-19T06:20:19.094Z,-2.43
2022-11-19T06:22:45.555Z,-3.01
2022-11-19T06:25:12.012Z,-2.77
2022-11-19T06:27:38.425Z,-2.87
2022-11-19T06:30:06.685Z,-1.93
2022-11-19T06:32:33.116Z,-1.53
2022-11-19T06:34:59.523Z,-1.61
2022-11-19T06:37:26.048Z,-1.22
2022-11-19T06:39:52.556Z,-1.14
2022-11-19T06:42:37.172Z,-1.07
2022-11-19T06:45:09.687Z,-1.13
2022-11-19T06:47:36.995Z,-1.03
2022-11-19T06:50:04.277Z,-1.05
2022-11-19T06:52:30.979Z,-1.05
2022-11-19T06:54:57.423Z,-1.55
2022-11-19T06:57:24.513Z,-1.56
2022-11-19T06:59:51.121Z,-1.20
2022-11-19T07:02:21.276Z,-1.13
2022-11-19T07:04:48.090Z,-1.09
2022-11-19T07:07:14.610Z,-1.04
2022-11-19T07:09:41.106Z,-1.15
2022-11-19T07:12:08.186Z,-1.29
2022-11-19T07:14:35.655Z,-1.31
2022-11-19T07:17:02.112Z,-0.96
2022-11-19T07:19:28.505Z,-0.90
2022-11-19T07:21:55.287Z,-0.96
2022-11-19T07:24:22.070Z,-0.96
2022-11-19T07:26:48.543Z,-0.81
2022-11-19T07:29:15.579Z,-0.84
2022-11-19T07:31:42.121Z,-0.49
2022-11-19T07:34:11.473Z,-0.29
2022-11-19T07:36:38.251Z,-0.43
2022-11-19T07:39:05.890Z,-0.47
2022-11-19T07:41:51.545Z,-0.20
2022-11-19T07:44:18.534Z,0.32
2022-11-19T07:46:45.053Z,0.14
2022-11-19T07:49:11.573Z,-0.10
2022-11-19T07:51:38.040Z,0.52
2022-11-19T07:54:04.841Z,0.83
2022-11-19T07:56:31.350Z,0.88
2022-11-19T07:59:00.417Z,1.26
2022-11-19T08:01:27.151Z,0.38
2022-11-19T08:03:56.565Z,2.06
2022-11-19T08:06:26.007Z,3.14
2022-11-19T08:08:52.532Z,4.03
2022-11-19T08:11:19.331Z,3.85
2022-11-19T08:13:45.844Z,5.28
2022-11-19T08:16:38.417Z,5.97
2022-11-19T08:19:10.434Z,5.32
2022-11-19T08:21:40.792Z,5.04
2022-11-19T08:24:08.441Z,3.77
2022-11-19T08:26:34.925Z,4.64
2022-11-19T08:29:01.609Z,4.72
2022-11-19T08:31:28.420Z,6.81
2022-11-19T08:33:55.179Z,7.33
2022-11-19T08:36:21.940Z,6.73
2022-11-19T08:38:48.741Z,5.55
2022-11-19T08:41:33.834Z,5.46
2022-11-19T08:44:03.986Z,5.38
2022-11-19T08:46:33.157Z,5.25
2022-11-19T08:48:59.683Z,5.51
2022-11-19T08:51:54.026Z,7.40
2022-11-19T08:54:26.548Z,8.39
2022-11-19T08:56:53.312Z,7.36
2022-11-19T08:59:21.802Z,9.00
2022-11-19T09:01:51.297Z,9.42
2022-11-19T09:04:18.042Z,10.21
2022-11-19T09:06:44.802Z,10.11
2022-11-19T09:09:11.769Z,9.33
2022-11-19T09:11:42.364Z,9.50
2022-11-19T09:14:09.233Z,9.85
2022-11-19T09:16:35.706Z,11.30
2022-11-19T09:19:02.203Z,11.74
2022-11-19T09:21:28.633Z,10.06
2022-11-19T09:23:55.025Z,10.71
2022-11-19T09:26:21.502Z,9.11
2022-11-19T09:28:49.305Z,10.44
2022-11-19T09:31:18.145Z,10.60
2022-11-19T09:33:49.887Z,10.39
2022-11-19T09:36:18.267Z,10.86
2022-11-19T09:38:45.144Z,11.12
2022-11-19T09:41:17.541Z,8.45
2022-11-19T09:44:02.475Z,8.74
2022-11-19T09:46:38.185Z,8.46
2022-11-19T09:49:11.051Z,7.99
2022-11-19T09:51:40.696Z,8.08
2022-11-19T09:54:14.870Z,8.06
2022-11-19T09:56:48.104Z,6.91
2022-11-19T09:59:28.498Z,6.63
2022-11-19T10:01:55.431Z,5.84
2022-11-19T10:04:24.671Z,6.07
2022-11-19T10:07:24.137Z,6.05
2022-11-19T10:09:50.541Z,5.57
2022-11-19T10:12:46.248Z,4.92
2022-11-19T10:15:24.071Z,4.30
2022-11-19T10:18:21.433Z,4.24
2022-11-19T10:21:06.480Z,4.04
2022-11-19T10:23:54.619Z,4.56
2022-11-19T10:26:33.893Z,3.97
2022-11-19T10:29:03.754Z,3.83
2022-11-19T10:31:35.961Z,3.72
2022-11-19T10:34:23.325Z,3.80
2022-11-19T10:37:01.785Z,3.99
2022-11-19T10:39:39.928Z,3.63
2022-11-19T10:42:35.555Z,3.85
2022-11-19T10:45:14.961Z,3.49
2022-11-19T10:48:08.905Z,3.36
2022-11-19T10:50:36.338Z,3.56
2022-11-19T10:53:24.178Z,3.71
2022-11-19T10:55:55.118Z,3.53
2022-11-19T10:58:21.543Z,3.59
2022-11-19T11:00:48.686Z,3.27
2022-11-19T11:03:33.522Z,3.85
2022-11-19T11:06:05.107Z,3.58
2022-11-19T11:08:32.444Z,3.69
2022-11-19T11:10:59.541Z,4.06
2022-11-19T11:13:59.370Z,3.62
2022-11-19T11:16:43.890Z,3.87
2022-11-19T11:19:17.651Z,3.94
2022-11-19T11:21:45.465Z,4.13
2022-11-19T11:24:13.742Z,3.40
2022-11-19T11:26:40.728Z,2.91
2022-11-19T11:29:26.258Z,3.42
2022-11-19T11:31:53.795Z,3.05
2022-11-19T11:34:37.974Z,3.51
2022-11-19T11:37:06.787Z,2.83
2022-11-19T11:39:39.385Z,3.29
2022-11-19T11:42:16.285Z,4.14
2022-11-19T11:44:59.263Z,4.12
2022-11-19T11:47:39.550Z,4.23
2022-11-19T11:50:17.232Z,3.94
2022-11-19T11:52:46.661Z,4.09
2022-11-19T11:55:23.581Z,4.43
2022-11-19T11:57:56.987Z,4.06
2022-11-19T12:00:39.818Z,3.84
2022-11-19T12:03:07.576Z,4.02
2022-11-19T12:05:44.097Z,3.96
2022-11-19T12:08:16.574Z,4.29
2022-11-19T12:10:58.204Z,3.86
2022-11-19T12:13:40.447Z,3.96
2022-11-19T12:16:42.068Z,4.21
2022-11-19T12:19:17.910Z,4.20
2022-11-19T12:21:59.495Z,4.09
2022-11-19T12:24:31.916Z,3.74
2022-11-19T12:27:07.773Z,3.89
2022-11-19T12:29:42.008Z,4.53
2022-11-19T12:32:21.188Z,3.47
2022-11-19T12:34:53.627Z,3.17
2022-11-19T12:37:41.691Z,3.98
2022-11-19T12:40:40.905Z,3.64
2022-11-19T12:43:32.432Z,4.27
2022-11-19T12:46:15.270Z,4.49
2022-11-19T12:49:02.413Z,4.07
2022-11-19T12:52:03.928Z,3.65
2022-11-19T12:54:59.582Z,4.48
2022-11-19T12:57:56.555Z,3.52
2022-11-19T13:00:28.586Z,4.15
2022-11-19T13:03:23.861Z,4.29
2022-11-19T13:05:50.230Z,4.66
2022-11-19T13:08:35.168Z,4.88
2022-11-19T13:11:24.017Z,4.23
2022-11-19T13:14:03.228Z,3.88
2022-11-19T13:16:33.256Z,3.83
2022-11-19T13:19:31.799Z,4.29
2022-11-19T13:22:20.468Z,3.43
2022-11-19T13:24:53.120Z,4.45
2022-11-19T13:27:23.710Z,3.90
2022-11-19T13:29:55.866Z,4.06
2022-11-19T13:32:34.786Z,4.22
2022-11-19T13:35:13.341Z,3.58
2022-11-19T13:37:55.344Z,4.16
2022-11-19T13:40:45.124Z,4.48
2022-11-19T13:43:35.429Z,4.34
2022-11-19T13:46:10.743Z,3.61
2022-11-19T13:48:59.496Z,4.43
2022-11-19T13:51:29.107Z,4.29
2022-11-19T13:54:02.638Z,4.16
2022-11-19T13:56:40.395Z,4.43
2022-11-19T13:59:07.848Z,4.64
2022-11-19T14:01:58.902Z,4.30
2022-11-19T14:04:49.619Z,4.30
2022-11-19T14:07:31.539Z,4.34
2022-11-19T14:10:15.156Z,4.07
2022-11-19T14:12:47.522Z,4.31
2022-11-19T14:15:44.739Z,3.81
2022-11-19T14:18:42.228Z,4.17
2022-11-19T14:21:45.352Z,4.30
2022-11-19T14:24:42.500Z,4.16
2022-11-19T14:27:31.900Z,4.04
2022-11-19T14:30:04.130Z,4.17
2022-11-19T14:32:40.665Z,4.13
2022-11-19T14:35:21.630Z,4.06
2022-11-19T14:37:57.891Z,3.83
2022-11-19T14:40:30.560Z,3.65
2022-11-19T14:43:18.403Z,3.19
2022-11-19T14:46:03.342Z,3.61
2022-11-19T14:48:51.819Z,3.69
2022-11-19T14:51:29.297Z,3.94
2022-11-19T14:54:31.600Z,3.43
2022-11-19T14:57:08.883Z,3.99
2022-11-19T14:59:38.053Z,4.05
2022-11-19T15:02:28.690Z,4.05
2022-11-19T15:05:27.964Z,3.88
2022-11-19T15:08:19.092Z,3.94
2022-11-19T15:11:06.946Z,3.83
2022-11-19T15:13:57.677Z,3.84
2022-11-19T15:16:27.541Z,3.72
2022-11-19T15:19:07.837Z,3.82
2022-11-19T15:21:50.408Z,3.74
2022-11-19T15:24:51.277Z,3.68
2022-11-19T15:27:59.165Z,3.65
2022-11-19T15:30:46.544Z,3.63
2022-11-19T15:33:25.060Z,3.58
2022-11-19T15:36:30.802Z,3.57
2022-11-19T15:39:02.386Z,3.53
2022-11-19T15:41:35.102Z,3.49
2022-11-19T15:44:07.349Z,3.45
2022-11-19T15:46:34.552Z,3.49
2022-11-19T15:49:09.978Z,3.36
2022-11-19T15:51:50.815Z,3.33
2022-11-19T15:54:17.263Z,3.26
2022-11-19T15:56:49.060Z,3.21
2022-11-19T15:59:19.103Z,3.26
2022-11-19T16:01:59.365Z,3.24
2022-11-19T16:04:32.165Z,3.21
2022-11-19T16:06:58.752Z,3.19
2022-11-19T16:09:25.751Z,3.21
2022-11-19T16:12:11.211Z,3.15
2022-11-19T16:14:56.036Z,3.12
2022-11-19T16:17:43.125Z,3.07
2022-11-19T16:20:10.094Z,3.07
2022-11-19T16:22:43.672Z,2.99
2022-11-19T16:25:35.445Z,2.98
2022-11-19T16:28:06.373Z,3.01
2022-11-19T16:30:41.687Z,2.99
2022-11-19T16:33:14.874Z,3.04
2022-11-19T16:35:41.321Z,3.06
2022-11-19T16:38:15.431Z,3.03
2022-11-19T16:41:01.439Z,2.97
2022-11-19T16:43:28.170Z,2.90
2022-11-19T16:45:54.978Z,2.80
2022-11-19T16:48:43.643Z,2.78
2022-11-19T16:51:34.531Z,2.62
2022-11-19T16:54:02.035Z,2.81
2022-11-19T16:56:35.343Z,2.83
2022-11-19T16:59:03.929Z,2.85
2022-11-19T17:01:31.440Z,2.76
2022-11-19T17:04:03.806Z,2.76
2022-11-19T17:06:33.185Z,2.81
2022-11-19T17:09:01.319Z,2.70
2022-11-19T17:12:08.384Z,2.73
2022-11-19T17:14:34.761Z,2.72
2022-11-19T17:17:02.454Z,2.72
2022-11-19T17:19:33.042Z,2.74
2022-11-19T17:22:07.335Z,2.79
2022-11-19T17:24:43.045Z,2.69
2022-11-19T17:27:23.327Z,2.62
2022-11-19T17:29:50.091Z,2.61
2022-11-19T17:32:16.569Z,2.62
2022-11-19T17:34:46.262Z,2.63
2022-11-19T17:37:12.723Z,2.67
2022-11-19T17:39:39.111Z,2.61
2022-11-19T17:42:24.271Z,2.61
2022-11-19T17:44:50.833Z,2.64
2022-11-19T17:47:23.506Z,2.58
2022-11-19T17:49:51.384Z,2.57
2022-11-19T17:52:25.308Z,2.60
2022-11-19T17:54:53.727Z,2.54
2022-11-19T17:57:20.236Z,2.42
2022-11-19T17:59:46.614Z,2.51
2022-11-19T18:02:18.248Z,2.55
2022-11-19T18:04:45.726Z,2.58
2022-11-19T18:07:12.837Z,2.55
2022-11-19T18:09:40.479Z,2.58
2022-11-19T18:12:12.466Z,2.59
2022-11-19T18:14:38.879Z,2.64
2022-11-19T18:17:05.354Z,2.56
2022-11-19T18:19:31.751Z,2.57
2022-11-19T18:21:58.233Z,2.57
2022-11-19T18:24:24.697Z,2.50
2022-11-19T18:26:51.131Z,2.54
2022-11-19T18:29:17.642Z,2.50
2022-11-19T18:31:48.570Z,2.55
2022-11-19T18:34:21.124Z,2.50
2022-11-19T18:36:47.715Z,2.46
2022-11-19T18:39:14.226Z,2.47
2022-11-19T18:41:41.344Z,2.45
2022-11-19T18:44:31.622Z,2.53
2022-11-19T18:46:58.142Z,2.42
2022-11-19T18:49:24.703Z,2.51
2022-11-19T18:51:52.174Z,2.48
2022-11-19T18:54:18.664Z,2.44
2022-11-19T18:56:45.273Z,2.39
2022-11-19T18:59:12.463Z,2.42
2022-11-19T19:01:39.858Z,2.37
2022-11-19T19:04:08.484Z,2.45
2022-11-19T19:06:35.416Z,2.37
2022-11-19T19:09:02.086Z,2.33
2022-11-19T19:11:47.097Z,2.38
2022-11-19T19:14:13.557Z,2.37
2022-11-19T19:16:40.026Z,2.36
2022-11-19T19:19:06.572Z,2.31
2022-11-19T19:21:33.880Z,2.27
2022-11-19T19:24:00.301Z,2.22
2022-11-19T19:26:26.819Z,2.22
2022-11-19T19:28:55.125Z,2.33
2022-11-19T19:31:23.051Z,2.25
2022-11-19T19:33:50.159Z,2.20
2022-11-19T19:36:18.025Z,2.15
2022-11-19T19:38:44.776Z,2.21
2022-11-19T19:41:17.586Z,2.10
2022-11-19T19:43:44.157Z,2.13
2022-11-19T19:46:16.133Z,2.19
2022-11-19T19:48:50.169Z,2.10
2022-11-19T19:51:17.131Z,2.08
2022-11-19T19:53:44.062Z,2.07
2022-11-19T19:56:14.741Z,1.92
2022-11-19T19:58:45.598Z,2.00
2022-11-19T20:01:21.209Z,2.01
2022-11-19T20:03:54.095Z,2.04
2022-11-19T20:06:23.494Z,2.05
2022-11-19T20:08:50.596Z,2.03
2022-11-19T20:11:19.593Z,1.96
2022-11-19T20:13:46.293Z,1.97
2022-11-19T20:16:18.167Z,1.92
2022-11-19T20:18:46.767Z,1.89
2022-11-19T20:21:18.504Z,1.95
2022-11-19T20:23:46.638Z,1.88
2022-11-19T20:26:16.911Z,1.93
2022-11-19T20:28:44.102Z,1.98
2022-11-19T20:31:13.969Z,1.90
2022-11-19T20:33:42.204Z,1.93
2022-11-19T20:36:10.558Z,1.88
2022-11-19T20:38:38.630Z,1.87
2022-11-19T20:41:07.294Z,1.86
2022-11-19T20:43:53.357Z,1.95
2022-11-19T20:46:21.416Z,1.90
2022-11-19T20:48:48.737Z,1.88
2022-11-19T20:51:16.287Z,1.83
2022-11-19T20:53:43.352Z,1.74
2022-11-19T20:56:09.968Z,1.74
2022-11-19T20:58:36.416Z,1.71
2022-11-19T21:01:10.115Z,1.72
2022-11-19T21:03:37.410Z,1.74
2022-11-19T21:06:06.598Z,1.70
2022-11-19T21:08:34.386Z,1.61
2022-11-19T21:11:06.847Z,1.53
2022-11-19T21:13:33.267Z,1.63
2022-11-19T21:15:59.829Z,1.66
2022-11-19T21:18:26.818Z,1.68
2022-11-19T21:21:01.516Z,1.60
2022-11-19T21:23:28.946Z,1.49
2022-11-19T21:26:03.700Z,1.71
2022-11-19T21:28:31.296Z,1.59
2022-11-19T21:30:58.073Z,1.55
2022-11-19T21:33:27.784Z,1.55
2022-11-19T21:35:55.498Z,1.55
2022-11-19T21:38:22.898Z,1.56
2022-11-19T21:40:54.391Z,1.51
2022-11-19T21:43:22.170Z,1.48
2022-11-19T21:45:49.044Z,1.38
2022-11-19T21:48:16.156Z,1.29
2022-11-19T21:50:42.613Z,1.40
2022-11-19T21:53:10.577Z,1.47
2022-11-19T21:55:37.306Z,1.46
2022-11-19T21:58:05.012Z,1.46
2022-11-19T22:00:32.396Z,1.46
2022-11-19T22:02:59.652Z,1.42
2022-11-19T22:05:27.587Z,1.35
2022-11-19T22:07:54.536Z,1.32
2022-11-19T22:10:21.079Z,1.30
2022-11-19T22:12:47.510Z,1.20
2022-11-19T22:15:13.940Z,1.33
2022-11-19T22:17:40.706Z,1.30
2022-11-19T22:20:07.604Z,1.19
2022-11-19T22:22:34.319Z,1.15
2022-11-19T22:25:00.823Z,1.14
2022-11-19T22:27:30.473Z,1.17
2022-11-19T22:29:57.096Z,1.17
2022-11-19T22:32:24.184Z,1.20
2022-11-19T22:34:50.619Z,1.26
2022-11-19T22:37:17.059Z,1.25
2022-11-19T22:39:43.895Z,1.23
2022-11-19T22:42:10.338Z,1.22
2022-11-19T22:44:36.776Z,1.26
2022-11-19T22:47:03.276Z,1.23
2022-11-19T22:49:29.815Z,1.23
2022-11-19T22:51:56.274Z,1.16
2022-11-19T22:54:22.736Z,1.20
2022-11-19T22:56:49.171Z,1.17
2022-11-19T22:59:15.652Z,1.18
2022-11-19T23:01:42.107Z,1.11
2022-11-19T23:04:08.866Z,1.17
2022-11-19T23:06:36.711Z,1.02
2022-11-19T23:09:04.500Z,1.05
2022-11-19T23:11:49.844Z,1.09
2022-11-19T23:14:18.188Z,0.92
2022-11-19T23:16:45.189Z,0.82
2022-11-19T23:19:13.364Z,0.86
2022-11-19T23:21:40.698Z,0.82
2022-11-19T23:24:07.432Z,0.68
2022-11-19T23:26:34.499Z,0.48
2022-11-19T23:29:01.000Z,0.60
2022-11-19T23:31:30.467Z,0.61
2022-11-19T23:33:59.264Z,0.65
2022-11-19T23:36:31.772Z,0.81
2022-11-19T23:38:59.757Z,0.67
2022-11-19T23:41:26.816Z,0.77
2022-11-19T23:43:54.769Z,0.89
2022-11-19T23:46:26.023Z,1.08
2022-11-19T23:48:54.587Z,1.19
2022-11-19T23:51:24.153Z,1.21
2022-11-19T23:53:50.992Z,1.12
2022-11-19T23:56:18.907Z,1.20
2022-11-19T23:58:45.678Z,1.37
